EmailTwitter


Surface observations / Quebec / CYQB (71714)

Regions: Quebec | Canada | USA | Europe | France | UK | Elsewhere
Station
Display
Info & Location for CYQB (71714) | Help decoding METAR

Weather Conditions observed on 2018/05/20 at 23:00 UTC at QUEBEC A, QB (CYQB)

Sky conditions: few clouds.

Temperature: 18.0 Celsius.

Dewpoint: 1.0 Celsius.

Relative Humidity: 32%

Winds: West at 9 km/h or 5 knots.

Mean Sea level Pressure: 101.31 kilopascals.

Altimeter Setting (QNH): 101.29 kilopascals or 29.91 inches of mercury.

Horizontal visibility: 30.00 statute miles or 48.00 kilometers.

Coded METAR:

CYQB 202300Z 28005KT 250V320 30SM FEW250 18/01 A2991 RMK CI1 CI TR SLP131

DENSITY ALT 700FT=